sensor_id;sensor_type;location;lat;lon;timestamp;pressure;altitude;pressure_sealevel;temperature;humidity
8581;BME280;4328;48.622;9.230;2022-07-05T00:00:09;98299.56;;;20.24;68.61
8581;BME280;4328;48.622;9.230;2022-07-05T00:02:36;98303.59;;;20.05;69.22
8581;BME280;4328;48.622;9.230;2022-07-05T00:05:03;98301.69;;;19.94;69.89
8581;BME280;4328;48.622;9.230;2022-07-05T00:07:30;98298.34;;;19.92;70.67
8581;BME280;4328;48.622;9.230;2022-07-05T00:09:57;98297.84;;;19.95;70.09
8581;BME280;4328;48.622;9.230;2022-07-05T00:12:26;98299.50;;;19.96;70.14
8581;BME280;4328;48.622;9.230;2022-07-05T00:14:53;98269.91;;;19.74;69.84
8581;BME280;4328;48.622;9.230;2022-07-05T00:17:21;98299.28;;;19.97;69.36
8581;BME280;4328;48.622;9.230;2022-07-05T00:19:48;98293.69;;;19.92;69.87
8581;BME280;4328;48.622;9.230;2022-07-05T00:22:14;98295.44;;;19.98;69.16
8581;BME280;4328;48.622;9.230;2022-07-05T00:24:41;98278.91;;;19.70;69.51
8581;BME280;4328;48.622;9.230;2022-07-05T00:27:07;98293.81;;;19.74;70.07
8581;BME280;4328;48.622;9.230;2022-07-05T00:29:34;98295.97;;;19.72;70.06
8581;BME280;4328;48.622;9.230;2022-07-05T00:32:01;98297.31;;;19.69;70.02
8581;BME280;4328;48.622;9.230;2022-07-05T00:34:29;98296.81;;;19.72;69.98
8581;BME280;4328;48.622;9.230;2022-07-05T00:36:55;98289.31;;;19.68;70.07
8581;BME280;4328;48.622;9.230;2022-07-05T00:39:22;98300.66;;;19.60;70.67
8581;BME280;4328;48.622;9.230;2022-07-05T00:41:49;98298.41;;;19.68;70.24
8581;BME280;4328;48.622;9.230;2022-07-05T00:44:15;98294.63;;;19.86;68.92
8581;BME280;4328;48.622;9.230;2022-07-05T00:46:43;98299.22;;;19.80;69.09
8581;BME280;4328;48.622;9.230;2022-07-05T00:49:10;98304.72;;;19.80;69.20
8581;BME280;4328;48.622;9.230;2022-07-05T00:51:39;98292.22;;;20.01;68.16
8581;BME280;4328;48.622;9.230;2022-07-05T00:54:05;98285.47;;;19.69;69.35
8581;BME280;4328;48.622;9.230;2022-07-05T00:56:32;98283.47;;;19.53;69.53
8581;BME280;4328;48.622;9.230;2022-07-05T00:58:59;98294.81;;;19.44;69.82
8581;BME280;4328;48.622;9.230;2022-07-05T01:01:26;98280.31;;;19.37;70.15
8581;BME280;4328;48.622;9.230;2022-07-05T01:03:53;98296.72;;;19.56;69.84
8581;BME280;4328;48.622;9.230;2022-07-05T01:06:20;98284.28;;;19.65;68.95
8581;BME280;4328;48.622;9.230;2022-07-05T01:08:48;98283.06;;;19.61;69.30
8581;BME280;4328;48.622;9.230;2022-07-05T01:11:16;98290.28;;;19.50;69.64
8581;BME280;4328;48.622;9.230;2022-07-05T01:13:43;98293.59;;;19.40;70.14
8581;BME280;4328;48.622;9.230;2022-07-05T01:16:09;98295.41;;;19.35;70.14
8581;BME280;4328;48.622;9.230;2022-07-05T01:18:36;98289.53;;;19.31;70.08
8581;BME280;4328;48.622;9.230;2022-07-05T01:21:03;98291.44;;;19.19;69.85
8581;BME280;4328;48.622;9.230;2022-07-05T01:23:32;98277.22;;;19.10;70.39
8581;BME280;4328;48.622;9.230;2022-07-05T01:26:00;98295.97;;;19.25;70.08
8581;BME280;4328;48.622;9.230;2022-07-05T01:28:28;98292.38;;;19.36;69.71
8581;BME280;4328;48.622;9.230;2022-07-05T01:30:55;98289.91;;;19.58;68.69
8581;BME280;4328;48.622;9.230;2022-07-05T01:33:27;98298.28;;;19.52;69.38
8581;BME280;4328;48.622;9.230;2022-07-05T01:35:54;98294.47;;;19.53;68.76
8581;BME280;4328;48.622;9.230;2022-07-05T01:38:21;98307.22;;;19.35;69.74
8581;BME280;4328;48.622;9.230;2022-07-05T01:40:49;98299.81;;;19.24;69.84
8581;BME280;4328;48.622;9.230;2022-07-05T01:43:17;98302.06;;;19.16;70.05
8581;BME280;4328;48.622;9.230;2022-07-05T01:45:45;98306.88;;;19.08;70.20
8581;BME280;4328;48.622;9.230;2022-07-05T01:48:14;98303.16;;;19.15;70.26
8581;BME280;4328;48.622;9.230;2022-07-05T01:50:47;98309.00;;;19.18;70.46
8581;BME280;4328;48.622;9.230;2022-07-05T01:53:17;98314.38;;;19.25;69.91
8581;BME280;4328;48.622;9.230;2022-07-05T01:55:45;98306.50;;;19.28;69.60
8581;BME280;4328;48.622;9.230;2022-07-05T01:58:13;98315.13;;;19.20;69.99
8581;BME280;4328;48.622;9.230;2022-07-05T02:00:44;98311.06;;;19.11;70.29
8581;BME280;4328;48.622;9.230;2022-07-05T02:03:12;98313.53;;;19.01;70.28
8581;BME280;4328;48.622;9.230;2022-07-05T02:05:39;98313.41;;;18.96;70.49
8581;BME280;4328;48.622;9.230;2022-07-05T02:08:06;98313.41;;;18.96;70.56
8581;BME280;4328;48.622;9.230;2022-07-05T02:10:34;98287.00;;;18.83;70.36
8581;BME280;4328;48.622;9.230;2022-07-05T02:13:00;98306.94;;;18.90;70.65
8581;BME280;4328;48.622;9.230;2022-07-05T02:15:29;98299.19;;;18.87;70.39
8581;BME280;4328;48.622;9.230;2022-07-05T02:17:56;98304.78;;;18.81;70.66
8581;BME280;4328;48.622;9.230;2022-07-05T02:20:23;98305.50;;;18.76;70.45
8581;BME280;4328;48.622;9.230;2022-07-05T02:22:49;98309.78;;;18.72;70.26
8581;BME280;4328;48.622;9.230;2022-07-05T02:25:16;98308.78;;;18.66;70.84
8581;BME280;4328;48.622;9.230;2022-07-05T02:27:42;98309.75;;;18.60;70.67
8581;BME280;4328;48.622;9.230;2022-07-05T02:30:10;98308.91;;;18.60;70.60
8581;BME280;4328;48.622;9.230;2022-07-05T02:32:38;98304.06;;;18.73;70.22
8581;BME280;4328;48.622;9.230;2022-07-05T02:35:05;98306.28;;;18.65;70.88
8581;BME280;4328;48.622;9.230;2022-07-05T02:37:33;98308.06;;;18.59;70.51
8581;BME280;4328;48.622;9.230;2022-07-05T02:39:59;98312.16;;;18.68;69.95
8581;BME280;4328;48.622;9.230;2022-07-05T02:42:26;98306.41;;;18.58;70.46
8581;BME280;4328;48.622;9.230;2022-07-05T02:44:53;98314.56;;;18.47;70.75
8581;BME280;4328;48.622;9.230;2022-07-05T02:47:19;98319.78;;;18.36;70.88
8581;BME280;4328;48.622;9.230;2022-07-05T02:49:47;98315.84;;;18.62;70.09
8581;BME280;4328;48.622;9.230;2022-07-05T02:52:14;98308.06;;;18.59;69.81
8581;BME280;4328;48.622;9.230;2022-07-05T02:54:41;98319.22;;;18.46;70.57
8581;BME280;4328;48.622;9.230;2022-07-05T02:57:07;98311.31;;;18.38;70.79
8581;BME280;4328;48.622;9.230;2022-07-05T02:59:34;98320.00;;;18.35;70.49
8581;BME280;4328;48.622;9.230;2022-07-05T03:02:00;98324.03;;;18.32;70.88
8581;BME280;4328;48.622;9.230;2022-07-05T03:04:27;98314.38;;;18.30;71.11
8581;BME280;4328;48.622;9.230;2022-07-05T03:06:55;98324.03;;;18.32;70.80
8581;BME280;4328;48.622;9.230;2022-07-05T03:09:22;98323.44;;;18.30;70.99
8581;BME280;4328;48.622;9.230;2022-07-05T03:11:48;98314.00;;;18.26;70.89
8581;BME280;4328;48.622;9.230;2022-07-05T03:14:15;98327.13;;;18.24;71.20
8581;BME280;4328;48.622;9.230;2022-07-05T03:16:41;98319.72;;;18.25;70.92
8581;BME280;4328;48.622;9.230;2022-07-05T03:19:09;98329.53;;;18.32;70.83
8581;BME280;4328;48.622;9.230;2022-07-05T03:21:36;98331.00;;;18.35;70.67
8581;BME280;4328;48.622;9.230;2022-07-05T03:24:05;98334.34;;;18.37;70.68
8581;BME280;4328;48.622;9.230;2022-07-05T03:26:31;98330.38;;;18.33;70.81
8581;BME280;4328;48.622;9.230;2022-07-05T03:28:58;98331.94;;;18.29;70.09
8581;BME280;4328;48.622;9.230;2022-07-05T03:31:25;98333.06;;;18.21;70.49
8581;BME280;4328;48.622;9.230;2022-07-05T03:33:51;98332.47;;;18.19;70.58
8581;BME280;4328;48.622;9.230;2022-07-05T03:36:18;98342.59;;;18.19;70.38
8581;BME280;4328;48.622;9.230;2022-07-05T03:38:44;98345.34;;;18.19;70.57
8581;BME280;4328;48.622;9.230;2022-07-05T03:41:12;98347.00;;;18.20;70.52
8581;BME280;4328;48.622;9.230;2022-07-05T03:43:39;98346.78;;;18.21;70.80
8581;BME280;4328;48.622;9.230;2022-07-05T03:46:06;98345.94;;;18.21;70.96
8581;BME280;4328;48.622;9.230;2022-07-05T03:48:33;98344.09;;;18.33;70.00
8581;BME280;4328;48.622;9.230;2022-07-05T03:51:00;98356.16;;;18.32;70.05
8581;BME280;4328;48.622;9.230;2022-07-05T03:53:26;98357.44;;;18.29;69.91
8581;BME280;4328;48.622;9.230;2022-07-05T03:55:53;98361.75;;;18.25;70.06
8581;BME280;4328;48.622;9.230;2022-07-05T03:58:21;98360.66;;;18.26;70.29
8581;BME280;4328;48.622;9.230;2022-07-05T04:00:48;98353.56;;;18.19;70.42
8581;BME280;4328;48.622;9.230;2022-07-05T04:03:14;98364.56;;;18.19;70.20
8581;BME280;4328;48.622;9.230;2022-07-05T04:05:41;98367.28;;;18.19;70.62
8581;BME280;4328;48.622;9.230;2022-07-05T04:08:08;98363.97;;;18.17;71.10
8581;BME280;4328;48.622;9.230;2022-07-05T04:10:34;98356.41;;;18.12;70.92
8581;BME280;4328;48.622;9.230;2022-07-05T04:13:01;98359.00;;;18.25;70.87
8581;BME280;4328;48.622;9.230;2022-07-05T04:15:29;98359.28;;;18.35;70.52
8581;BME280;4328;48.622;9.230;2022-07-05T04:17:56;98363.47;;;18.38;70.35
8581;BME280;4328;48.622;9.230;2022-07-05T04:20:23;98369.56;;;18.40;70.17
8581;BME280;4328;48.622;9.230;2022-07-05T04:22:51;98372.84;;;18.49;69.94
8581;BME280;4328;48.622;9.230;2022-07-05T04:25:18;98374.50;;;18.50;69.92
8581;BME280;4328;48.622;9.230;2022-07-05T04:27:45;98373.06;;;18.47;69.83
8581;BME280;4328;48.622;9.230;2022-07-05T04:30:12;98379.38;;;18.66;68.98
8581;BME280;4328;48.622;9.230;2022-07-05T04:32:40;98378.19;;;18.62;68.98
8581;BME280;4328;48.622;9.230;2022-07-05T04:35:08;98380.31;;;18.60;69.40
8581;BME280;4328;48.622;9.230;2022-07-05T04:37:35;98383.09;;;18.53;70.22
8581;BME280;4328;48.622;9.230;2022-07-05T04:40:02;98374.38;;;18.63;69.87
8581;BME280;4328;48.622;9.230;2022-07-05T04:42:29;98374.41;;;18.56;69.94
8581;BME280;4328;48.622;9.230;2022-07-05T04:44:56;98375.03;;;18.58;70.18
8581;BME280;4328;48.622;9.230;2022-07-05T04:47:22;98378.28;;;18.67;69.93
8581;BME280;4328;48.622;9.230;2022-07-05T04:49:52;98390.72;;;18.69;70.10
8581;BME280;4328;48.622;9.230;2022-07-05T04:52:19;98392.41;;;18.70;69.88
8581;BME280;4328;48.622;9.230;2022-07-05T04:54:45;98398.06;;;18.75;70.11
8581;BME280;4328;48.622;9.230;2022-07-05T04:57:12;98401.06;;;18.86;69.43
8581;BME280;4328;48.622;9.230;2022-07-05T04:59:38;98395.69;;;18.91;69.52
8581;BME280;4328;48.622;9.230;2022-07-05T05:02:05;98390.00;;;19.04;68.51
8581;BME280;4328;48.622;9.230;2022-07-05T05:04:32;98392.16;;;19.02;68.75
8581;BME280;4328;48.622;9.230;2022-07-05T05:07:00;98377.22;;;18.98;69.00
8581;BME280;4328;48.622;9.230;2022-07-05T05:09:27;98382.59;;;19.04;68.90
8581;BME280;4328;48.622;9.230;2022-07-05T05:11:53;98387.03;;;19.05;69.26
8581;BME280;4328;48.622;9.230;2022-07-05T05:14:20;98386.19;;;19.05;69.41
8581;BME280;4328;48.622;9.230;2022-07-05T05:16:47;98383.81;;;19.08;69.04
8581;BME280;4328;48.622;9.230;2022-07-05T05:19:13;98379.88;;;19.16;68.50
8581;BME280;4328;48.622;9.230;2022-07-05T05:21:40;98385.97;;;19.18;68.70
8581;BME280;4328;48.622;9.230;2022-07-05T05:24:08;98387.69;;;19.31;68.93
8581;BME280;4328;48.622;9.230;2022-07-05T05:26:35;98388.75;;;19.41;68.37
8581;BME280;4328;48.622;9.230;2022-07-05T05:29:01;98385.69;;;19.50;68.31
8581;BME280;4328;48.622;9.230;2022-07-05T05:31:29;98384.28;;;19.59;68.17
8581;BME280;4328;48.622;9.230;2022-07-05T05:33:55;98392.75;;;19.57;68.36
8581;BME280;4328;48.622;9.230;2022-07-05T05:36:22;98392.16;;;19.67;68.13
8581;BME280;4328;48.622;9.230;2022-07-05T05:38:48;98393.34;;;19.71;68.28
8581;BME280;4328;48.622;9.230;2022-07-05T05:41:17;98398.28;;;19.80;68.42
8581;BME280;4328;48.622;9.230;2022-07-05T05:43:43;98402.31;;;19.90;67.38
8581;BME280;4328;48.622;9.230;2022-07-05T05:46:10;98395.59;;;19.97;66.85
8581;BME280;4328;48.622;9.230;2022-07-05T05:48:36;98397.25;;;20.10;66.20
8581;BME280;4328;48.622;9.230;2022-07-05T05:51:03;98399.13;;;20.33;65.04
8581;BME280;4328;48.622;9.230;2022-07-05T05:53:30;98406.78;;;20.31;65.37
8581;BME280;4328;48.622;9.230;2022-07-05T05:55:57;98410.06;;;20.28;65.13
8581;BME280;4328;48.622;9.230;2022-07-05T05:58:25;98412.81;;;20.28;65.55
8581;BME280;4328;48.622;9.230;2022-07-05T06:00:52;98405.88;;;20.37;65.96
8581;BME280;4328;48.622;9.230;2022-07-05T06:03:20;98410.72;;;20.58;64.55
8581;BME280;4328;48.622;9.230;2022-07-05T06:05:46;98413.78;;;20.73;64.88
8581;BME280;4328;48.622;9.230;2022-07-05T06:08:13;98415.53;;;20.79;65.15
8581;BME280;4328;48.622;9.230;2022-07-05T06:10:40;98421.22;;;20.73;65.97
8581;BME280;4328;48.622;9.230;2022-07-05T06:13:09;98414.16;;;20.94;64.85
8581;BME280;4328;48.622;9.230;2022-07-05T06:15:38;98421.06;;;21.08;64.02
8581;BME280;4328;48.622;9.230;2022-07-05T06:18:06;98419.72;;;21.10;64.07
8581;BME280;4328;48.622;9.230;2022-07-05T06:20:34;98422.53;;;20.99;65.06
8581;BME280;4328;48.622;9.230;2022-07-05T06:23:02;98415.53;;;21.08;64.81
8581;BME280;4328;48.622;9.230;2022-07-05T06:25:31;98428.88;;;21.27;62.88
8581;BME280;4328;48.622;9.230;2022-07-05T06:28:00;98423.13;;;21.29;62.92
8581;BME280;4328;48.622;9.230;2022-07-05T06:30:28;98426.13;;;21.27;62.39
8581;BME280;4328;48.622;9.230;2022-07-05T06:32:57;98421.44;;;21.28;62.86
8581;BME280;4328;48.622;9.230;2022-07-05T06:35:24;98427.13;;;21.38;61.99
8581;BME280;4328;48.622;9.230;2022-07-05T06:37:52;98428.66;;;21.46;61.05
8581;BME280;4328;48.622;9.230;2022-07-05T06:40:20;98431.91;;;21.59;60.60
8581;BME280;4328;48.622;9.230;2022-07-05T06:42:47;98422.72;;;21.54;60.70
8581;BME280;4328;48.622;9.230;2022-07-05T06:45:14;98427.56;;;21.63;60.27
8581;BME280;4328;48.622;9.230;2022-07-05T06:47:41;98428.31;;;21.92;59.07
8581;BME280;4328;48.622;9.230;2022-07-05T06:50:10;98440.09;;;21.88;58.05
8581;BME280;4328;48.622;9.230;2022-07-05T06:52:37;98427.66;;;21.69;58.72
8581;BME280;4328;48.622;9.230;2022-07-05T06:55:05;98437.44;;;21.93;57.08
8581;BME280;4328;48.622;9.230;2022-07-05T06:57:32;98443.69;;;21.88;57.51
8581;BME280;4328;48.622;9.230;2022-07-05T06:59:58;98435.41;;;21.88;58.42
8581;BME280;4328;48.622;9.230;2022-07-05T07:02:25;98438.69;;;22.02;58.14
8581;BME280;4328;48.622;9.230;2022-07-05T07:04:52;98437.50;;;22.15;56.25
8581;BME280;4328;48.622;9.230;2022-07-05T07:07:20;98435.97;;;22.24;56.25
8581;BME280;4328;48.622;9.230;2022-07-05T07:10:05;98438.53;;;22.30;55.99
8581;BME280;4328;48.622;9.230;2022-07-05T07:12:31;98431.78;;;22.21;56.07
8581;BME280;4328;48.622;9.230;2022-07-05T07:14:58;98440.06;;;22.21;55.59
8581;BME280;4328;48.622;9.230;2022-07-05T07:17:25;98422.25;;;22.29;55.69
8581;BME280;4328;48.622;9.230;2022-07-05T07:19:51;98432.09;;;22.42;55.96
8581;BME280;4328;48.622;9.230;2022-07-05T07:22:19;98434.19;;;22.56;56.44
8581;BME280;4328;48.622;9.230;2022-07-05T07:24:46;98437.53;;;22.58;57.35
8581;BME280;4328;48.622;9.230;2022-07-05T07:27:13;98437.88;;;22.62;57.77
8581;BME280;4328;48.622;9.230;2022-07-05T07:29:40;98436.31;;;22.71;57.55
8581;BME280;4328;48.622;9.230;2022-07-05T07:32:07;98436.06;;;22.94;57.27
8581;BME280;4328;48.622;9.230;2022-07-05T07:34:35;98433.66;;;23.03;57.06
8581;BME280;4328;48.622;9.230;2022-07-05T07:37:04;98440.97;;;23.14;57.00
8581;BME280;4328;48.622;9.230;2022-07-05T07:39:32;98410.28;;;23.16;55.57
8581;BME280;4328;48.622;9.230;2022-07-05T07:41:59;98440.41;;;23.12;56.37
8581;BME280;4328;48.622;9.230;2022-07-05T07:44:25;98436.28;;;23.15;56.00
8581;BME280;4328;48.622;9.230;2022-07-05T07:46:52;98446.25;;;23.16;56.65
8581;BME280;4328;48.622;9.230;2022-07-05T07:49:19;98439.41;;;23.23;56.84
8581;BME280;4328;48.622;9.230;2022-07-05T07:51:45;98438.09;;;23.31;57.40
8581;BME280;4328;48.622;9.230;2022-07-05T07:54:13;98436.25;;;23.41;56.57
8581;BME280;4328;48.622;9.230;2022-07-05T07:56:41;98433.81;;;23.45;57.07
8581;BME280;4328;48.622;9.230;2022-07-05T07:59:08;98437.72;;;23.49;57.02
8581;BME280;4328;48.622;9.230;2022-07-05T08:01:35;98438.38;;;23.56;55.19
8581;BME280;4328;48.622;9.230;2022-07-05T08:04:02;98442.91;;;23.72;54.38
8581;BME280;4328;48.622;9.230;2022-07-05T08:06:28;98444.16;;;23.87;53.02
8581;BME280;4328;48.622;9.230;2022-07-05T08:08:56;98443.63;;;23.90;53.75
8581;BME280;4328;48.622;9.230;2022-07-05T08:11:22;98448.72;;;24.03;53.57
8581;BME280;4328;48.622;9.230;2022-07-05T08:13:50;98440.47;;;24.13;52.93
8581;BME280;4328;48.622;9.230;2022-07-05T08:16:17;98437.44;;;24.20;53.64
8581;BME280;4328;48.622;9.230;2022-07-05T08:18:44;98443.09;;;24.30;52.95
8581;BME280;4328;48.622;9.230;2022-07-05T08:21:28;98423.13;;;24.28;51.56
8581;BME280;4328;48.622;9.230;2022-07-05T08:23:57;98438.97;;;24.37;52.28
8581;BME280;4328;48.622;9.230;2022-07-05T08:26:24;98434.00;;;24.44;51.57
8581;BME280;4328;48.622;9.230;2022-07-05T08:28:52;98433.47;;;24.47;51.77
8581;BME280;4328;48.622;9.230;2022-07-05T08:31:19;98429.09;;;24.52;50.93
8581;BME280;4328;48.622;9.230;2022-07-05T08:33:46;98432.97;;;24.56;51.78
8581;BME280;4328;48.622;9.230;2022-07-05T08:36:13;98427.47;;;24.66;51.72
8581;BME280;4328;48.622;9.230;2022-07-05T08:38:40;98428.06;;;24.73;51.96
8581;BME280;4328;48.622;9.230;2022-07-05T08:41:08;98430.31;;;24.86;51.86
8581;BME280;4328;48.622;9.230;2022-07-05T08:43:37;98424.31;;;24.99;51.75
8581;BME280;4328;48.622;9.230;2022-07-05T08:46:07;98432.63;;;25.04;51.45
8581;BME280;4328;48.622;9.230;2022-07-05T08:48:36;98426.28;;;25.19;49.95
8581;BME280;4328;48.622;9.230;2022-07-05T08:51:09;98427.69;;;25.22;50.11
8581;BME280;4328;48.622;9.230;2022-07-05T08:53:37;98419.34;;;25.27;50.33
8581;BME280;4328;48.622;9.230;2022-07-05T08:56:04;98428.00;;;25.45;48.40
8581;BME280;4328;48.622;9.230;2022-07-05T08:58:32;98423.78;;;25.38;49.60
8581;BME280;4328;48.622;9.230;2022-07-05T09:01:00;98423.28;;;25.46;49.15
8581;BME280;4328;48.622;9.230;2022-07-05T09:03:31;98419.72;;;25.61;48.42
8581;BME280;4328;48.622;9.230;2022-07-05T09:06:00;98364.09;;;25.05;49.40
8581;BME280;4328;48.622;9.230;2022-07-05T09:08:29;98422.97;;;25.42;49.29
8581;BME280;4328;48.622;9.230;2022-07-05T09:11:00;98430.50;;;25.47;49.98
8581;BME280;4328;48.622;9.230;2022-07-05T09:13:27;98426.59;;;25.58;49.54
8581;BME280;4328;48.622;9.230;2022-07-05T09:15:54;98427.75;;;25.82;48.33
8581;BME280;4328;48.622;9.230;2022-07-05T09:18:43;98420.78;;;25.85;50.30
8581;BME280;4328;48.622;9.230;2022-07-05T09:21:17;98430.22;;;26.04;49.46
8581;BME280;4328;48.622;9.230;2022-07-05T09:23:45;98425.47;;;26.10;49.05
8581;BME280;4328;48.622;9.230;2022-07-05T09:26:19;98424.94;;;26.18;48.56
8581;BME280;4328;48.622;9.230;2022-07-05T09:28:56;98420.44;;;26.42;47.63
8581;BME280;4328;48.622;9.230;2022-07-05T09:31:28;98414.28;;;26.50;48.08
8581;BME280;4328;48.622;9.230;2022-07-05T09:34:03;98403.78;;;26.37;47.38
8581;BME280;4328;48.622;9.230;2022-07-05T09:36:50;98427.09;;;26.51;45.00
8581;BME280;4328;48.622;9.230;2022-07-05T09:39:18;98425.19;;;26.42;44.98
8581;BME280;4328;48.622;9.230;2022-07-05T09:41:44;98427.09;;;26.46;46.97
8581;BME280;4328;48.622;9.230;2022-07-05T09:44:23;98428.16;;;26.60;45.20
8581;BME280;4328;48.622;9.230;2022-07-05T09:47:06;98422.13;;;26.38;45.08
8581;BME280;4328;48.622;9.230;2022-07-05T09:49:34;98426.84;;;26.22;45.78
8581;BME280;4328;48.622;9.230;2022-07-05T09:52:01;98431.59;;;25.97;46.27
8581;BME280;4328;48.622;9.230;2022-07-05T09:54:27;98434.94;;;25.99;46.05
8581;BME280;4328;48.622;9.230;2022-07-05T09:56:54;98427.13;;;26.21;47.19
8581;BME280;4328;48.622;9.230;2022-07-05T09:59:20;98430.44;;;26.48;45.49
8581;BME280;4328;48.622;9.230;2022-07-05T10:01:48;98403.44;;;26.54;45.11
8581;BME280;4328;48.622;9.230;2022-07-05T10:04:14;98428.66;;;26.73;44.89
8581;BME280;4328;48.622;9.230;2022-07-05T10:06:43;98431.13;;;26.79;43.38
8581;BME280;4328;48.622;9.230;2022-07-05T10:09:10;98417.72;;;26.91;42.35
8581;BME280;4328;48.622;9.230;2022-07-05T10:11:40;98430.84;;;26.86;43.25
8581;BME280;4328;48.622;9.230;2022-07-05T10:14:11;98428.63;;;26.83;43.87
8581;BME280;4328;48.622;9.230;2022-07-05T10:16:38;98421.94;;;26.79;43.81
8581;BME280;4328;48.622;9.230;2022-07-05T10:19:08;98427.81;;;26.77;44.10
8581;BME280;4328;48.622;9.230;2022-07-05T10:21:43;98425.34;;;26.71;44.47
8581;BME280;4328;48.622;9.230;2022-07-05T10:24:11;98425.84;;;26.83;43.99
8581;BME280;4328;48.622;9.230;2022-07-05T10:26:38;98417.19;;;26.94;43.18
8581;BME280;4328;48.622;9.230;2022-07-05T10:29:07;98415.91;;;27.26;44.49
8581;BME280;4328;48.622;9.230;2022-07-05T10:31:34;98415.41;;;27.58;42.03
8581;BME280;4328;48.622;9.230;2022-07-05T10:34:02;98419.56;;;27.94;41.26
8581;BME280;4328;48.622;9.230;2022-07-05T10:36:33;98416.69;;;27.99;41.72
8581;BME280;4328;48.622;9.230;2022-07-05T10:39:01;98413.53;;;28.11;43.99
8581;BME280;4328;48.622;9.230;2022-07-05T10:41:29;98408.47;;;28.18;41.89
8581;BME280;4328;48.622;9.230;2022-07-05T10:43:56;98403.06;;;28.27;40.81
8581;BME280;4328;48.622;9.230;2022-07-05T10:46:33;98403.25;;;28.35;40.47
8581;BME280;4328;48.622;9.230;2022-07-05T10:49:10;98404.50;;;28.24;40.66
8581;BME280;4328;48.622;9.230;2022-07-05T10:51:37;98395.38;;;28.14;41.08
8581;BME280;4328;48.622;9.230;2022-07-05T10:54:05;98362.22;;;28.12;41.04
8581;BME280;4328;48.622;9.230;2022-07-05T10:56:32;98394.78;;;28.17;40.85
8581;BME280;4328;48.622;9.230;2022-07-05T10:59:09;98397.03;;;28.15;40.29
8581;BME280;4328;48.622;9.230;2022-07-05T11:01:38;98389.50;;;28.20;39.40
8581;BME280;4328;48.622;9.230;2022-07-05T11:04:23;98396.63;;;28.31;38.97
8581;BME280;4328;48.622;9.230;2022-07-05T11:06:52;98402.41;;;28.35;39.27
8581;BME280;4328;48.622;9.230;2022-07-05T11:09:20;98377.09;;;28.31;40.30
8581;BME280;4328;48.622;9.230;2022-07-05T11:12:01;98401.66;;;28.53;38.74
8581;BME280;4328;48.622;9.230;2022-07-05T11:14:39;98409.91;;;28.63;39.14
8581;BME280;4328;48.622;9.230;2022-07-05T11:17:21;98406.16;;;28.73;39.59
8581;BME280;4328;48.622;9.230;2022-07-05T11:20:10;98408.78;;;28.64;38.83
8581;BME280;4328;48.622;9.230;2022-07-05T11:22:39;98408.19;;;28.44;38.21
8581;BME280;4328;48.622;9.230;2022-07-05T11:25:09;98413.94;;;28.52;39.61
8581;BME280;4328;48.622;9.230;2022-07-05T11:28:00;98406.63;;;28.56;36.79
8581;BME280;4328;48.622;9.230;2022-07-05T11:30:44;98408.84;;;28.59;37.63
8581;BME280;4328;48.622;9.230;2022-07-05T11:33:34;98403.34;;;28.97;37.48
8581;BME280;4328;48.622;9.230;2022-07-05T11:36:01;98406.59;;;29.04;37.78
8581;BME280;4328;48.622;9.230;2022-07-05T11:38:29;98400.28;;;28.98;36.54
8581;BME280;4328;48.622;9.230;2022-07-05T11:41:10;98394.94;;;29.02;38.01
8581;BME280;4328;48.622;9.230;2022-07-05T11:43:37;98391.59;;;29.00;36.87
8581;BME280;4328;48.622;9.230;2022-07-05T11:46:06;98386.66;;;28.92;36.60
8581;BME280;4328;48.622;9.230;2022-07-05T11:48:33;98391.69;;;29.14;36.97
8581;BME280;4328;48.622;9.230;2022-07-05T11:51:11;98386.53;;;29.21;37.11
8581;BME280;4328;48.622;9.230;2022-07-05T11:53:39;98378.38;;;29.05;37.41
8581;BME280;4328;48.622;9.230;2022-07-05T11:56:09;98386.03;;;29.00;37.72
8581;BME280;4328;48.622;9.230;2022-07-05T11:58:35;98384.94;;;28.96;37.31
8581;BME280;4328;48.622;9.230;2022-07-05T12:01:02;98383.66;;;29.07;36.56
8581;BME280;4328;48.622;9.230;2022-07-05T12:03:31;98381.25;;;29.00;37.68
8581;BME280;4328;48.622;9.230;2022-07-05T12:05:57;98381.75;;;28.84;38.26
8581;BME280;4328;48.622;9.230;2022-07-05T12:08:24;98363.66;;;28.57;38.99
8581;BME280;4328;48.622;9.230;2022-07-05T12:10:52;98383.38;;;28.66;38.50
8581;BME280;4328;48.622;9.230;2022-07-05T12:13:45;98374.56;;;28.78;37.94
8581;BME280;4328;48.622;9.230;2022-07-05T12:16:12;98372.84;;;28.82;37.51
8581;BME280;4328;48.622;9.230;2022-07-05T12:18:49;98373.72;;;29.01;36.45
8581;BME280;4328;48.622;9.230;2022-07-05T12:21:17;98364.19;;;28.83;34.38
8581;BME280;4328;48.622;9.230;2022-07-05T12:23:46;98365.81;;;28.65;35.31
8581;BME280;4328;48.622;9.230;2022-07-05T12:26:13;98361.25;;;28.69;37.09
8581;BME280;4328;48.622;9.230;2022-07-05T12:28:40;98358.16;;;28.95;36.94
8581;BME280;4328;48.622;9.230;2022-07-05T12:31:19;98357.56;;;28.79;35.38
8581;BME280;4328;48.622;9.230;2022-07-05T12:33:46;98359.53;;;28.73;36.25
8581;BME280;4328;48.622;9.230;2022-07-05T12:36:14;98354.66;;;28.65;36.80
8581;BME280;4328;48.622;9.230;2022-07-05T12:38:41;98359.19;;;28.56;38.06
8581;BME280;4328;48.622;9.230;2022-07-05T12:41:08;98357.28;;;28.75;38.13
8581;BME280;4328;48.622;9.230;2022-07-05T12:43:48;98360.81;;;28.86;37.88
8581;BME280;4328;48.622;9.230;2022-07-05T12:46:15;98323.50;;;28.77;38.18
8581;BME280;4328;48.622;9.230;2022-07-05T12:48:44;98354.34;;;28.91;38.65
8581;BME280;4328;48.622;9.230;2022-07-05T12:51:11;98346.59;;;28.83;38.01
8581;BME280;4328;48.622;9.230;2022-07-05T12:53:47;98360.94;;;28.95;36.28
8581;BME280;4328;48.622;9.230;2022-07-05T12:56:32;98359.59;;;29.11;37.36
8581;BME280;4328;48.622;9.230;2022-07-05T12:59:16;98335.38;;;29.06;37.33
8581;BME280;4328;48.622;9.230;2022-07-05T13:01:44;98350.31;;;29.34;35.69
8581;BME280;4328;48.622;9.230;2022-07-05T13:04:13;98354.75;;;29.35;35.72
8581;BME280;4328;48.622;9.230;2022-07-05T13:06:48;98353.69;;;29.31;36.09
8581;BME280;4328;48.622;9.230;2022-07-05T13:09:17;98351.00;;;29.26;36.62
8581;BME280;4328;48.622;9.230;2022-07-05T13:12:05;98357.84;;;29.34;37.63
8581;BME280;4328;48.622;9.230;2022-07-05T13:14:32;98357.31;;;29.32;37.05
8581;BME280;4328;48.622;9.230;2022-07-05T13:16:58;98356.78;;;29.30;37.22
8581;BME280;4328;48.622;9.230;2022-07-05T13:19:26;98359.38;;;29.26;37.90
8581;BME280;4328;48.622;9.230;2022-07-05T13:21:53;98361.56;;;29.48;36.54
8581;BME280;4328;48.622;9.230;2022-07-05T13:24:20;98359.16;;;29.41;35.52
8581;BME280;4328;48.622;9.230;2022-07-05T13:26:46;98359.69;;;29.43;36.53
8581;BME280;4328;48.622;9.230;2022-07-05T13:29:13;98355.66;;;29.31;35.92